Time;durP1;ratioP1;P1;durP2;ratioP2;P2;SDS_P1;SDS_P2;PMS_P1;PMS_P2;Temp;Humidity;BMP_temperature;BMP_pressure;BME280_temperature;BME280_humidity;BME280_pressure;Samples;Min_cycle;Max_cycle;Signal;HPM_P1;HPM_P2
2023/05/14 00:02:12;;;;;;;5.00;2.70;;;;;;;13.24;76.52;101320.97;6099853;28;20283;-70
2023/05/14 00:05:08;;;;;;;4.97;2.83;;;;;;;13.19;76.36;101313.44;6099715;28;20056;-69
2023/05/14 00:08:04;;;;;;;4.68;2.85;;;;;;;13.25;74.67;101331.47;6099809;28;20025;-70
2023/05/14 00:10:59;;;;;;;6.13;3.00;;;;;;;13.23;77.21;101313.97;6099712;28;20044;-70
2023/05/14 00:13:55;;;;;;;5.85;3.13;;;;;;;13.11;76.30;101316.84;6099767;28;20039;-69
2023/05/14 00:16:50;;;;;;;7.00;3.27;;;;;;;13.15;77.43;101308.56;6103781;28;20093;-70
2023/05/14 00:19:45;;;;;;;5.23;3.03;;;;;;;13.19;77.93;101323.22;6108622;28;20033;-71
2023/05/14 00:22:41;;;;;;;4.50;2.93;;;;;;;13.13;77.52;101323.84;6099713;28;20060;-69
2023/05/14 00:25:36;;;;;;;5.13;2.97;;;;;;;13.08;76.66;101317.13;6097829;28;20594;-70
2023/05/14 00:28:31;;;;;;;5.93;3.20;;;;;;;12.99;77.40;101306.50;6099145;28;20468;-70
2023/05/14 00:31:26;;;;;;;6.67;3.00;;;;;;;12.69;77.64;101304.91;6099328;28;20025;-69
2023/05/14 00:34:22;;;;;;;4.67;2.63;;;;;;;12.63;79.68;101305.50;6098738;28;20040;-69
2023/05/14 00:37:17;;;;;;;6.23;3.53;;;;;;;12.97;79.48;101305.78;6099117;28;20473;-70
2023/05/14 00:40:12;;;;;;;6.63;3.30;;;;;;;12.73;76.52;101294.81;6099406;28;20483;-70
2023/05/14 00:43:08;;;;;;;5.90;3.13;;;;;;;12.92;77.41;101306.22;6099023;28;20068;-69
2023/05/14 00:46:03;;;;;;;6.27;3.50;;;;;;;12.79;77.17;101300.41;6098263;28;20043;-69
2023/05/14 00:48:58;;;;;;;7.37;3.73;;;;;;;12.82;79.67;101302.78;6098209;28;20036;-69
2023/05/14 00:51:54;;;;;;;6.17;3.00;;;;;;;12.45;79.74;101286.78;6097528;28;20471;-69
2023/05/14 00:54:49;;;;;;;5.82;3.88;;;;;;;12.53;80.44;101307.34;6098406;28;20072;-69
2023/05/14 00:57:45;;;;;;;8.87;3.57;;;;;;;12.80;80.17;101296.75;6097425;28;20074;-69
2023/05/14 01:00:41;;;;;;;6.00;3.80;;;;;;;12.68;79.47;101303.25;6097323;28;20267;-69
2023/05/14 01:03:36;;;;;;;7.18;4.30;;;;;;;12.78;81.04;101309.38;6098303;28;20439;-69
2023/05/14 01:06:40;;;;;;;6.25;3.72;;;;;;;12.79;80.14;101297.75;6098423;28;20025;-68
2023/05/14 01:09:49;;;;;;;7.70;4.10;;;;;;;12.59;78.82;101290.81;6098736;28;20058;-69
2023/05/14 01:13:12;;;;;;;7.93;4.18;;;;;;;12.67;80.27;101304.22;6097167;28;20028;-69
2023/05/14 01:16:11;;;;;;;7.68;4.20;;;;;;;12.59;79.88;101304.09;6094535;28;20021;-69
2023/05/14 01:19:21;;;;;;;7.15;4.43;;;;;;;12.62;81.25;101303.81;6093921;28;20100;-69
2023/05/14 01:22:16;;;;;;;7.97;4.55;;;;;;;12.27;78.19;101295.63;6098463;28;20028;-70
2023/05/14 01:25:12;;;;;;;7.15;4.20;;;;;;;11.83;79.24;101295.25;6097486;28;20041;-68
2023/05/14 01:28:18;;;;;;;8.93;4.23;;;;;;;11.01;82.09;101311.53;6098164;28;20032;-70
2023/05/14 01:31:18;;;;;;;6.70;3.97;;;;;;;10.49;85.36;101325.84;6098322;28;20484;-70
2023/05/14 01:34:15;;;;;;;6.35;3.90;;;;;;;9.90;88.22;101317.53;6095984;28;20075;-69
2023/05/14 01:37:11;;;;;;;8.40;4.15;;;;;;;9.58;90.47;101323.69;6096633;28;20021;-69
2023/05/14 01:40:08;;;;;;;8.32;3.90;;;;;;;9.48;92.79;101311.31;6096513;28;20036;-69
2023/05/14 01:43:04;;;;;;;7.60;3.85;;;;;;;9.90;91.77;101301.66;6096781;28;20025;-69
2023/05/14 01:45:59;;;;;;;9.20;3.97;;;;;;;10.53;90.58;101303.38;6095871;28;20051;-69
2023/05/14 01:48:54;;;;;;;5.90;3.72;;;;;;;10.58;87.23;101296.72;6096297;28;20033;-70
2023/05/14 01:51:50;;;;;;;8.32;4.15;;;;;;;11.05;86.14;101303.19;6097673;28;20029;-70
2023/05/14 01:54:46;;;;;;;6.13;4.00;;;;;;;11.26;85.12;101300.44;6096878;28;20040;-68
2023/05/14 01:57:41;;;;;;;6.70;4.13;;;;;;;11.40;86.61;101305.38;6097780;28;20048;-70
2023/05/14 02:00:37;;;;;;;6.93;3.93;;;;;;;11.49;86.32;101303.72;6097353;28;20039;-69
2023/05/14 02:03:32;;;;;;;7.43;4.55;;;;;;;11.50;85.86;101287.66;6097106;28;20025;-68
2023/05/14 02:06:27;;;;;;;6.77;4.30;;;;;;;11.22;85.03;101286.59;6097793;28;20029;-71
2023/05/14 02:09:23;;;;;;;7.00;4.43;;;;;;;10.98;85.84;101299.38;6097183;28;20043;-70
2023/05/14 02:12:18;;;;;;;7.05;4.15;;;;;;;11.00;86.15;101301.91;6097650;28;20046;-69
2023/05/14 02:15:14;;;;;;;7.47;4.47;;;;;;;10.75;86.78;101288.16;6103864;28;20037;-70
2023/05/14 02:18:09;;;;;;;7.50;4.17;;;;;;;10.92;86.89;101283.19;6090029;28;20052;-69
2023/05/14 02:21:04;;;;;;;7.73;3.80;;;;;;;10.60;87.28;101297.41;6106089;28;20376;-70
2023/05/14 02:24:00;;;;;;;8.00;4.50;;;;;;;10.12;88.64;101275.91;6096357;28;20028;-69
2023/05/14 02:26:55;;;;;;;6.40;4.10;;;;;;;9.86;90.90;101279.03;6097047;28;20618;-69
2023/05/14 02:29:50;;;;;;;9.47;4.67;;;;;;;10.14;91.49;101289.03;6097074;28;20029;-70
2023/05/14 02:32:45;;;;;;;7.00;4.13;;;;;;;10.10;91.53;101287.59;6099228;28;20029;-69
2023/05/14 02:35:41;;;;;;;9.03;4.30;;;;;;;10.32;91.52;101292.81;6096629;28;20375;-69
2023/05/14 02:38:36;;;;;;;7.23;3.87;;;;;;;10.21;90.47;101276.97;6096898;28;20108;-69
2023/05/14 02:41:31;;;;;;;8.17;4.70;;;;;;;10.22;90.14;101291.88;6097360;28;20037;-69
2023/05/14 02:44:27;;;;;;;8.57;4.57;;;;;;;9.91;92.08;101290.94;6096312;28;20506;-69
2023/05/14 02:47:22;;;;;;;8.13;4.07;;;;;;;9.83;91.74;101292.53;6097841;28;20044;-68
2023/05/14 02:50:17;;;;;;;7.43;5.00;;;;;;;9.48;93.79;101279.56;6121029;28;20091;-68
2023/05/14 02:53:12;;;;;;;8.47;4.90;;;;;;;9.50;95.25;101288.19;6110986;28;20025;-69
2023/05/14 02:56:08;;;;;;;7.93;4.50;;;;;;;9.53;94.93;101280.00;6101087;28;20122;-69
2023/05/14 02:59:03;;;;;;;10.07;4.90;;;;;;;9.50;95.66;101291.69;6087234;28;20032;-69
2023/05/14 03:01:58;;;;;;;11.50;5.77;;;;;;;9.47;95.53;101289.28;6101336;28;20039;-68
2023/05/14 03:04:54;;;;;;;8.37;4.50;;;;;;;9.67;95.32;101284.19;6100803;28;20104;-69
2023/05/14 03:07:50;;;;;;;7.23;4.50;;;;;;;9.59;94.61;101276.88;6101017;28;20063;-68
2023/05/14 03:10:45;;;;;;;8.57;4.50;;;;;;;9.59;94.11;101282.97;6099410;28;20074;-69
2023/05/14 03:13:41;;;;;;;7.43;4.47;;;;;;;9.37;95.91;101261.91;6100562;28;20044;-69
2023/05/14 03:16:36;;;;;;;8.97;4.73;;;;;;;9.41;96.26;101262.47;6095153;28;20446;-70
2023/05/14 03:19:32;;;;;;;9.40;5.63;;;;;;;9.37;96.69;101267.19;6099871;28;20025;-70
2023/05/14 03:22:27;;;;;;;8.30;4.70;;;;;;;9.61;96.22;101274.09;6100782;28;20058;-70
2023/05/14 03:25:22;;;;;;;7.23;4.67;;;;;;;9.87;95.66;101280.69;6094676;28;20367;-70
2023/05/14 03:28:18;;;;;;;9.60;4.73;;;;;;;9.79;95.30;101272.56;6100498;28;20037;-70
2023/05/14 03:31:13;;;;;;;7.17;4.67;;;;;;;10.15;96.30;101264.22;6101114;28;20146;-70
2023/05/14 03:34:08;;;;;;;7.25;4.30;;;;;;;10.47;94.49;101275.56;6100228;28;20632;-69
2023/05/14 03:37:04;;;;;;;7.40;4.57;;;;;;;10.53;93.43;101263.59;6099735;28;20025;-70
2023/05/14 03:39:59;;;;;;;7.57;4.03;;;;;;;10.90;92.60;101271.88;6100825;28;20029;-71
2023/05/14 03:42:54;;;;;;;6.77;3.97;;;;;;;10.49;91.63;101268.31;6100403;28;20108;-71
2023/05/14 03:45:51;;;;;;;6.60;4.22;;;;;;;10.29;92.83;101274.50;6100044;28;20032;-70
2023/05/14 03:48:46;;;;;;;8.55;4.70;;;;;;;10.19;92.88;101263.00;6100542;28;20452;-70
2023/05/14 03:51:41;;;;;;;8.23;4.57;;;;;;;10.20;93.14;101256.72;6099303;28;20024;-70
2023/05/14 03:54:37;;;;;;;8.93;4.53;;;;;;;9.97;92.09;101263.91;6099576;28;20086;-71
2023/05/14 03:57:32;;;;;;;7.85;4.32;;;;;;;9.67;93.51;101278.88;6100067;28;20361;-68
2023/05/14 04:00:28;;;;;;;8.77;4.50;;;;;;;9.53;94.37;101266.78;6099903;28;20055;-69
2023/05/14 04:03:23;;;;;;;9.80;4.88;;;;;;;9.54;94.61;101277.22;6100000;28;20263;-70
2023/05/14 04:06:18;;;;;;;7.70;4.47;;;;;;;9.76;94.36;101280.75;6099213;28;20082;-71
2023/05/14 04:09:14;;;;;;;9.43;4.83;;;;;;;9.83;94.86;101274.00;6100061;28;20017;-70
2023/05/14 04:12:09;;;;;;;7.90;4.40;;;;;;;9.97;93.57;101265.75;6099704;28;20025;-71
2023/05/14 04:15:05;;;;;;;8.67;4.80;;;;;;;9.95;93.44;101272.97;6099444;28;20021;-70
2023/05/14 04:18:00;;;;;;;7.50;4.45;;;;;;;10.15;93.43;101267.72;6093093;28;20039;-69
2023/05/14 04:20:56;;;;;;;8.68;4.50;;;;;;;10.54;90.41;101265.28;6098836;28;20036;-71
2023/05/14 04:23:51;;;;;;;8.37;4.30;;;;;;;10.71;88.54;101265.50;6098976;28;20029;-71
2023/05/14 04:26:46;;;;;;;7.47;4.33;;;;;;;11.14;87.01;101267.06;6099141;28;20389;-71
2023/05/14 04:29:42;;;;;;;6.13;3.97;;;;;;;11.03;86.51;101264.50;6099586;28;20335;-70
2023/05/14 04:32:37;;;;;;;7.67;4.47;;;;;;;10.93;85.30;101255.66;6099585;28;20029;-70
2023/05/14 04:35:33;;;;;;;7.38;4.30;;;;;;;11.61;86.00;101254.78;6097970;28;20109;-72
2023/05/14 04:38:28;;;;;;;7.77;4.37;;;;;;;12.20;83.35;101254.66;6099406;28;20029;-70
2023/05/14 04:41:23;;;;;;;7.27;4.07;;;;;;;12.07;80.80;101254.09;6099213;28;20105;-71
2023/05/14 04:44:18;;;;;;;9.70;4.80;;;;;;;12.06;80.58;101239.16;6098635;28;20028;-70
2023/05/14 04:47:14;;;;;;;7.60;4.10;;;;;;;11.71;81.03;101259.16;6098010;28;20025;-70
2023/05/14 04:50:09;;;;;;;8.10;3.90;;;;;;;11.89;81.53;101249.53;6097642;28;20051;-71
2023/05/14 04:53:04;;;;;;;7.18;4.20;;;;;;;11.84;82.53;101243.81;6098968;28;20111;-70
2023/05/14 04:56:00;;;;;;;6.47;4.28;;;;;;;12.67;79.15;101258.13;6098199;28;20094;-70
2023/05/14 04:58:55;;;;;;;8.00;4.47;;;;;;;12.14;81.17;101261.38;6098723;28;20124;-71
2023/05/14 05:01:50;;;;;;;8.87;4.53;;;;;;;11.94;81.25;101238.47;6097965;28;20482;-70
2023/05/14 05:04:46;;;;;;;6.67;4.10;;;;;;;12.36;81.55;101246.91;6097942;28;20031;-70
2023/05/14 05:07:41;;;;;;;6.30;3.83;;;;;;;12.18;81.92;101235.31;6098622;28;20040;-72
2023/05/14 05:10:36;;;;;;;7.93;4.50;;;;;;;12.73;79.27;101252.25;6098320;28;20438;-70
2023/05/14 05:13:31;;;;;;;7.73;4.80;;;;;;;12.81;78.97;101258.50;6097392;28;20040;-71
2023/05/14 05:16:27;;;;;;;6.37;3.63;;;;;;;12.97;78.14;101245.41;6091988;28;20031;-69
2023/05/14 05:19:22;;;;;;;9.67;5.20;;;;;;;13.60;74.45;101253.44;6106140;28;20349;-70
2023/05/14 05:22:18;;;;;;;6.97;4.40;;;;;;;13.17;76.61;101238.19;6098556;28;20043;-70
2023/05/14 05:25:14;;;;;;;7.05;4.50;;;;;;;13.56;75.33;101233.41;6097588;28;20021;-69
2023/05/14 05:28:09;;;;;;;7.70;4.40;;;;;;;13.51;75.59;101252.50;6122357;28;20024;-68
2023/05/14 05:31:04;;;;;;;6.40;4.30;;;;;;;13.87;74.15;101239.16;6098581;28;20029;-68
2023/05/14 05:34:00;;;;;;;6.70;4.43;;;;;;;14.32;72.59;101243.38;6096392;28;20024;-69
2023/05/14 05:36:55;;;;;;;8.43;4.37;;;;;;;14.25;71.87;101244.13;6097904;28;20270;-69
2023/05/14 05:39:51;;;;;;;7.88;4.57;;;;;;;14.76;70.21;101232.59;6097676;28;20263;-69
2023/05/14 05:42:46;;;;;;;6.40;4.23;;;;;;;14.71;69.84;101241.09;6098046;28;20021;-69
2023/05/14 05:45:41;;;;;;;7.17;4.50;;;;;;;14.63;69.05;101229.53;6096189;28;20357;-69
2023/05/14 05:48:36;;;;;;;7.77;4.33;;;;;;;15.24;69.26;101246.13;6097766;28;20071;-70
2023/05/14 05:51:32;;;;;;;7.13;4.23;;;;;;;15.85;66.33;101231.53;6097874;28;20020;-69
2023/05/14 05:54:27;;;;;;;6.10;4.05;;;;;;;14.96;68.33;101244.69;6096836;28;20138;-70
2023/05/14 05:57:22;;;;;;;6.60;4.13;;;;;;;15.24;67.14;101239.94;6097350;28;20031;-70
2023/05/14 06:00:18;;;;;;;8.93;4.73;;;;;;;15.47;66.77;101236.53;6096776;28;20032;-71
2023/05/14 06:03:13;;;;;;;9.10;4.40;;;;;;;15.73;65.79;101236.38;6097501;28;20021;-70
2023/05/14 06:06:09;;;;;;;9.23;4.60;;;;;;;15.46;66.38;101242.03;6097210;28;20036;-70
2023/05/14 06:09:05;;;;;;;9.60;4.43;;;;;;;15.37;66.21;101230.47;6097142;28;20027;-68
2023/05/14 06:12:00;;;;;;;7.63;4.57;;;;;;;15.63;65.36;101221.47;6094910;28;20037;-70
2023/05/14 06:14:56;;;;;;;6.93;4.33;;;;;;;15.94;62.76;101243.91;6096629;28;20125;-70
2023/05/14 06:17:52;;;;;;;6.95;4.10;;;;;;;15.79;64.17;101237.56;6090079;28;20461;-70
2023/05/14 06:20:47;;;;;;;5.77;3.80;;;;;;;15.81;63.72;101230.19;6097330;28;20120;-70
2023/05/14 06:23:43;;;;;;;7.23;4.23;;;;;;;15.98;64.33;101237.22;6096402;28;20037;-70
2023/05/14 06:26:38;;;;;;;7.43;3.88;;;;;;;16.58;60.52;101232.28;6100899;28;20032;-71
2023/05/14 06:29:33;;;;;;;5.83;3.80;;;;;;;16.65;62.08;101252.03;6100505;28;20040;-70
2023/05/14 06:32:28;;;;;;;7.00;4.10;;;;;;;17.03;59.17;101250.38;6102363;28;20366;-69
2023/05/14 06:35:24;;;;;;;7.60;4.70;;;;;;;16.71;59.97;101234.44;6101632;28;20472;-69
2023/05/14 06:38:19;;;;;;;6.73;3.60;;;;;;;17.01;60.72;101252.38;6101808;28;20031;-70
2023/05/14 06:41:15;;;;;;;5.77;3.87;;;;;;;16.46;61.94;101253.22;6101265;28;20024;-71
2023/05/14 06:44:10;;;;;;;5.93;3.85;;;;;;;16.95;60.20;101240.53;6101116;28;20032;-71
2023/05/14 06:47:07;;;;;;;7.63;4.10;;;;;;;16.69;61.67;101228.41;6101957;28;20032;-69
2023/05/14 06:50:03;;;;;;;6.95;3.95;;;;;;;17.42;58.87;101247.66;6102572;28;20379;-68
2023/05/14 06:52:58;;;;;;;7.50;3.92;;;;;;;17.34;59.26;101229.75;6102563;28;20032;-69
2023/05/14 06:55:53;;;;;;;5.43;3.60;;;;;;;17.73;58.73;101227.84;6099871;28;20043;-69
2023/05/14 06:58:48;;;;;;;7.00;3.63;;;;;;;17.36;60.02;101246.50;6090181;28;20036;-69
2023/05/14 07:01:44;;;;;;;6.47;3.50;;;;;;;17.58;58.96;101234.16;6101821;28;20517;-68
2023/05/14 07:04:39;;;;;;;7.10;4.00;;;;;;;16.95;60.21;101240.53;6101087;28;20025;-70
2023/05/14 07:07:34;;;;;;;7.37;4.33;;;;;;;16.43;63.45;101236.66;6101215;28;20024;-70
2023/05/14 07:10:30;;;;;;;7.07;4.00;;;;;;;16.90;61.72;101223.31;6097300;28;20271;-70
2023/05/14 07:13:25;;;;;;;6.27;3.93;;;;;;;16.98;60.68;101237.50;6100859;28;20029;-69
2023/05/14 07:16:21;;;;;;;7.03;3.70;;;;;;;17.11;58.83;101215.47;6097204;28;20037;-69
2023/05/14 07:19:16;;;;;;;6.43;3.92;;;;;;;16.23;61.91;101220.13;6096380;28;20021;-70
2023/05/14 07:22:11;;;;;;;6.17;3.60;;;;;;;16.40;62.82;101219.09;6101124;28;20033;-70
2023/05/14 07:25:07;;;;;;;6.40;3.95;;;;;;;16.48;62.21;101213.72;6100455;28;20526;-71
2023/05/14 07:28:02;;;;;;;7.70;3.70;;;;;;;16.53;60.81;101227.44;6100825;28;20056;-70
2023/05/14 07:30:58;;;;;;;6.63;3.70;;;;;;;16.49;59.71;101215.38;6101145;28;20499;-72
2023/05/14 07:33:53;;;;;;;6.00;3.53;;;;;;;16.34;61.06;101222.44;6100338;28;20810;-70
2023/05/14 07:36:49;;;;;;;6.32;3.60;;;;;;;16.94;57.51;101219.25;6099772;28;20040;-69
2023/05/14 07:39:44;;;;;;;5.55;3.55;;;;;;;17.34;57.25;101221.69;6100861;28;20052;-70
2023/05/14 07:42:39;;;;;;;5.87;3.77;;;;;;;17.80;57.43;101206.50;6100589;28;20037;-69
2023/05/14 07:45:35;;;;;;;6.00;3.60;;;;;;;18.82;54.27;101208.44;6100158;28;20025;-70
2023/05/14 07:48:31;;;;;;;5.88;3.40;;;;;;;19.00;52.93;101190.03;6099097;28;20029;-69
2023/05/14 07:51:27;;;;;;;6.13;3.60;;;;;;;18.33;54.28;101202.78;6099805;28;20079;-70
2023/05/14 07:54:22;;;;;;;4.78;3.42;;;;;;;18.53;53.94;101193.19;6099879;28;20020;-69
2023/05/14 07:57:18;;;;;;;6.17;4.07;;;;;;;18.15;54.96;101202.31;6100330;28;20414;-69
2023/05/14 08:00:15;;;;;;;6.93;3.80;;;;;;;18.24;56.39;101198.50;6101211;28;20021;-69
2023/05/14 08:03:10;;;;;;;6.80;3.28;;;;;;;18.44;54.64;101183.53;6107236;28;20033;-70
2023/05/14 08:06:06;;;;;;;5.37;3.53;;;;;;;18.49;54.64;101191.03;6118173;28;20078;-69
2023/05/14 08:09:03;;;;;;;6.40;3.43;;;;;;;18.29;55.15;101196.13;6099867;28;20083;-69
2023/05/14 08:11:59;;;;;;;5.82;3.80;;;;;;;18.26;55.67;101196.47;6099649;28;20292;-70
2023/05/14 08:14:55;;;;;;;5.57;3.22;;;;;;;18.23;53.85;101178.06;6099527;28;20025;-70
2023/05/14 08:17:50;;;;;;;5.53;3.10;;;;;;;18.11;54.54;101195.63;6092131;28;20032;-70
2023/05/14 08:20:45;;;;;;;6.63;3.30;;;;;;;18.48;52.28;101178.66;6099729;28;20422;-71
2023/05/14 08:23:41;;;;;;;5.95;3.42;;;;;;;18.74;51.34;101192.41;6097555;28;20263;-70
2023/05/14 08:26:37;;;;;;;4.87;2.80;;;;;;;18.92;51.02;101188.31;6099169;28;20061;-70
2023/05/14 08:29:32;;;;;;;5.35;2.95;;;;;;;18.63;51.14;101182.97;6099440;28;20310;-69
2023/05/14 08:32:28;;;;;;;5.70;3.20;;;;;;;18.71;51.50;101180.19;6099335;28;20147;-69
2023/05/14 08:35:23;;;;;;;5.68;3.65;;;;;;;19.20;50.78;101179.53;6098443;28;20448;-70
2023/05/14 08:38:19;;;;;;;5.37;3.07;;;;;;;18.66;49.62;101163.81;6099215;28;20039;-69
2023/05/14 08:41:15;;;;;;;6.00;3.15;;;;;;;19.54;48.33;101160.88;6099108;28;20033;-70
2023/05/14 08:44:19;;;;;;;5.20;2.90;;;;;;;19.81;47.72;101184.28;6098796;28;20029;-71
2023/05/14 08:47:17;;;;;;;6.03;3.08;;;;;;;20.10;47.97;101178.72;6098038;28;20460;-70
2023/05/14 08:50:12;;;;;;;4.80;3.05;;;;;;;20.51;46.87;101175.28;6096871;28;20485;-71
2023/05/14 08:53:07;;;;;;;5.47;3.40;;;;;;;20.30;46.04;101157.31;6097775;28;20037;-70
2023/05/14 08:56:04;;;;;;;5.30;3.13;;;;;;;20.09;46.43;101155.50;6096874;28;20036;-70
2023/05/14 08:58:59;;;;;;;6.90;3.30;;;;;;;19.45;48.73;101167.41;6098933;28;20531;-70
2023/05/14 09:02:00;;;;;;;4.38;2.95;;;;;;;19.55;48.50;101165.22;6097410;28;20024;-72
2023/05/14 09:04:57;;;;;;;4.75;3.05;;;;;;;19.29;48.68;101164.94;6098316;28;20033;-71
2023/05/14 09:07:53;;;;;;;4.80;2.95;;;;;;;19.93;46.60;101158.50;6098010;28;20464;-70
2023/05/14 09:10:48;;;;;;;5.53;2.90;;;;;;;19.41;47.40;101161.56;6097290;28;20033;-70
2023/05/14 09:13:43;;;;;;;4.53;3.00;;;;;;;19.38;47.29;101144.97;6097259;28;20033;-71
2023/05/14 09:16:41;;;;;;;4.80;3.00;;;;;;;19.22;47.65;101142.50;6099531;28;20032;-68
2023/05/14 09:19:40;;;;;;;7.28;3.20;;;;;;;19.38;47.46;101139.59;6097530;28;20032;-71
2023/05/14 09:22:37;;;;;;;4.50;3.33;;;;;;;19.69;47.81;101140.09;6098612;28;20203;-71
2023/05/14 09:25:32;;;;;;;6.47;3.03;;;;;;;20.05;46.54;101143.47;6098117;28;20033;-71
2023/05/14 09:28:29;;;;;;;6.63;3.50;;;;;;;19.84;45.19;101148.09;6097732;28;20021;-70
2023/05/14 09:31:25;;;;;;;6.55;3.17;;;;;;;20.19;45.49;101144.38;6096087;28;20025;-71
2023/05/14 09:34:28;;;;;;;5.25;3.30;;;;;;;20.55;44.05;101128.00;6096958;28;20094;-70
2023/05/14 09:37:24;;;;;;;4.90;3.03;;;;;;;20.51;46.37;101140.22;6097309;28;20594;-70
2023/05/14 09:40:21;;;;;;;8.25;3.60;;;;;;;21.01;42.71;101131.69;6097350;28;20041;-69
2023/05/14 09:43:17;;;;;;;7.53;3.40;;;;;;;20.73;43.38;101120.22;6097050;28;20032;-70
2023/05/14 09:46:12;;;;;;;7.88;3.63;;;;;;;20.61;46.39;101108.34;6096419;28;20032;-70
2023/05/14 09:49:08;;;;;;;6.30;3.20;;;;;;;20.79;41.59;101116.69;6097606;28;20028;-71
2023/05/14 09:52:05;;;;;;;9.67;3.30;;;;;;;20.47;41.92;101109.31;6096953;28;20278;-70
2023/05/14 09:55:01;;;;;;;4.63;3.05;;;;;;;20.00;42.48;101110.91;6096268;28;20048;-70
2023/05/14 09:57:56;;;;;;;4.72;2.60;;;;;;;20.42;41.63;101126.09;6097059;28;20048;-70
2023/05/14 10:00:52;;;;;;;5.20;2.90;;;;;;;21.00;40.18;101121.97;6097675;28;20039;-71
2023/05/14 10:03:48;;;;;;;4.32;2.63;;;;;;;21.28;39.63;101114.56;6097168;28;20035;-70
2023/05/14 10:06:47;;;;;;;3.75;2.65;;;;;;;21.29;39.31;101085.72;6096881;28;20468;-71
2023/05/14 10:09:43;;;;;;;7.30;3.00;;;;;;;21.31;39.36;101097.13;6097356;28;20033;-70
2023/05/14 10:12:39;;;;;;;5.35;2.75;;;;;;;20.88;39.87;101082.28;6097389;28;20040;-69
2023/05/14 10:15:50;;;;;;;6.68;2.80;;;;;;;21.51;40.09;101092.56;6095311;28;20035;-70
2023/05/14 10:18:50;;;;;;;10.00;3.72;;;;;;;21.33;40.51;101087.78;6097344;28;20478;-71
2023/05/14 10:21:55;;;;;;;5.22;3.00;;;;;;;21.54;40.45;101069.72;6096260;28;20029;-71
2023/05/14 10:24:51;;;;;;;4.85;3.42;;;;;;;21.85;39.73;101072.63;6096765;28;20669;-71
2023/05/14 10:27:46;;;;;;;4.20;2.92;;;;;;;21.86;39.90;101069.72;6095888;28;20031;-70
2023/05/14 10:30:45;;;;;;;7.60;3.25;;;;;;;22.06;39.69;101080.47;6097535;28;20029;-71
2023/05/14 10:33:49;;;;;;;5.70;3.30;;;;;;;21.57;39.25;101066.63;6098022;28;20475;-68
2023/05/14 10:36:44;;;;;;;6.00;3.22;;;;;;;21.00;39.84;101059.94;6118443;28;20040;-69
2023/05/14 10:40:00;;;;;;;5.85;3.05;;;;;;;20.95;40.55;101073.22;6099245;28;20422;-71
2023/05/14 10:42:58;;;;;;;9.30;3.63;;;;;;;20.95;41.16;101065.13;6097489;28;20048;-69
2023/05/14 10:45:53;;;;;;;5.15;3.30;;;;;;;20.77;41.82;101064.84;6096105;28;20076;-70
2023/05/14 10:48:48;;;;;;;6.75;3.33;;;;;;;21.05;41.13;101076.31;6095834;28;20480;-70
2023/05/14 10:51:48;;;;;;;5.05;3.60;;;;;;;21.31;41.14;101057.47;6095088;28;20029;-70
2023/05/14 10:54:54;;;;;;;4.88;3.08;;;;;;;22.20;38.77;101049.69;6095089;28;20040;-70
2023/05/14 10:57:51;;;;;;;5.68;3.20;;;;;;;21.97;38.43;101062.00;6095493;28;20032;-70
2023/05/14 11:00:48;;;;;;;6.55;3.58;;;;;;;22.03;39.21;101053.06;6096826;28;20546;-71
2023/05/14 11:03:45;;;;;;;5.38;3.38;;;;;;;21.12;39.78;101042.13;6095991;28;20243;-71
2023/05/14 11:06:42;;;;;;;6.10;3.03;;;;;;;22.32;38.70;101052.53;6095720;28;20036;-68
2023/05/14 11:09:37;;;;;;;6.03;3.33;;;;;;;21.45;39.25;101049.38;6096075;28;20027;-69
2023/05/14 11:12:37;;;;;;;4.72;3.08;;;;;;;21.60;38.78;101041.91;6099808;28;20029;-72
2023/05/14 11:15:32;;;;;;;8.32;3.45;;;;;;;21.94;37.99;101033.53;6098801;28;20032;-71
2023/05/14 11:18:28;;;;;;;5.53;2.90;;;;;;;22.76;36.24;101027.38;6093917;28;20033;-70
2023/05/14 11:21:24;;;;;;;5.88;2.95;;;;;;;22.78;36.17;101025.28;6101201;28;20526;-72
2023/05/14 11:24:19;;;;;;;6.07;3.50;;;;;;;22.57;36.17;101020.19;6100544;28;20037;-71
2023/05/14 11:27:15;;;;;;;5.80;3.20;;;;;;;23.28;35.91;101018.88;6099109;28;20600;-70
2023/05/14 11:30:18;;;;;;;5.40;3.60;;;;;;;22.15;36.51;101008.94;6100630;28;20346;-72
2023/05/14 11:33:13;;;;;;;6.47;4.18;;;;;;;21.70;37.94;101015.28;6100902;28;20036;-70
2023/05/14 11:36:10;;;;;;;5.77;3.60;;;;;;;21.69;37.31;101016.31;6100209;28;20468;-71
2023/05/14 11:39:06;;;;;;;6.65;3.17;;;;;;;21.75;36.39;101007.38;6104433;28;20642;-71
2023/05/14 11:42:03;;;;;;;7.03;3.25;;;;;;;21.89;37.01;100992.84;6103906;28;20032;-69
2023/05/14 11:44:59;;;;;;;6.18;2.72;;;;;;;22.06;36.26;100994.03;6103046;28;20033;-70
2023/05/14 11:47:54;;;;;;;5.68;2.83;;;;;;;21.66;36.97;100995.97;6100273;28;20594;-70
2023/05/14 11:50:51;;;;;;;4.97;3.10;;;;;;;21.90;36.88;100981.00;6100388;28;20083;-70
2023/05/14 11:53:46;;;;;;;7.13;2.75;;;;;;;22.10;36.10;100975.50;6086597;28;20028;-70
2023/05/14 11:56:41;;;;;;;5.03;3.00;;;;;;;21.96;36.43;100987.44;6100337;28;20043;-69
2023/05/14 11:59:37;;;;;;;5.80;2.93;;;;;;;22.14;37.40;100974.03;6100705;28;20029;-70
2023/05/14 12:02:32;;;;;;;9.05;3.83;;;;;;;21.84;36.70;100969.16;6100073;28;20049;-70
2023/05/14 12:05:28;;;;;;;9.00;3.57;;;;;;;22.04;36.39;100963.69;6097833;28;20029;-69
2023/05/14 12:08:30;;;;;;;6.63;2.57;;;;;;;21.21;34.17;100957.25;6099768;28;20486;-69
2023/05/14 12:11:30;;;;;;;5.38;2.63;;;;;;;21.51;34.66;100952.22;6099774;28;20057;-69
2023/05/14 12:14:25;;;;;;;6.50;2.83;;;;;;;21.08;35.89;100956.44;6099422;28;20040;-69
2023/05/14 12:17:21;;;;;;;4.90;2.67;;;;;;;20.88;35.45;100972.56;6098999;28;20472;-70
2023/05/14 12:20:17;;;;;;;5.15;2.90;;;;;;;21.52;34.87;100955.75;6091051;28;20035;-70
2023/05/14 12:23:12;;;;;;;6.20;3.10;;;;;;;21.84;34.71;100942.16;6098507;28;20024;-71
2023/05/14 12:26:08;;;;;;;5.60;2.70;;;;;;;22.02;35.37;100941.47;6101975;28;20029;-70
2023/05/14 12:29:05;;;;;;;6.95;2.72;;;;;;;21.97;35.27;100952.09;6099496;28;20013;-70
2023/05/14 12:32:03;;;;;;;6.38;3.35;;;;;;;22.46;33.69;100908.16;6099423;28;20061;-71
2023/05/14 12:35:00;;;;;;;4.80;3.13;;;;;;;22.89;33.18;100913.66;6098785;28;20395;-71
2023/05/14 12:37:55;;;;;;;5.03;2.70;;;;;;;23.31;32.72;100931.81;6108514;28;20063;-70
2023/05/14 12:40:50;;;;;;;5.75;2.90;;;;;;;24.37;32.20;100928.66;6098712;28;20460;-71
2023/05/14 12:43:46;;;;;;;4.27;2.80;;;;;;;24.88;30.91;100917.25;6098647;28;20108;-72
2023/05/14 12:46:42;;;;;;;6.13;3.65;;;;;;;24.73;31.02;100918.47;6098664;28;20028;-71
2023/05/14 12:49:37;;;;;;;7.80;3.43;;;;;;;22.91;32.91;100909.69;6099119;28;20025;-71
2023/05/14 12:52:32;;;;;;;6.35;3.00;;;;;;;23.03;33.29;100915.22;6092906;28;20388;-70
2023/05/14 12:55:28;;;;;;;7.10;3.10;;;;;;;23.01;33.29;100907.34;6097492;28;20027;-69
2023/05/14 12:58:23;;;;;;;5.63;3.20;;;;;;;22.36;34.17;100902.41;6097081;28;20286;-70
2023/05/14 13:01:18;;;;;;;6.33;3.33;;;;;;;21.82;35.14;100911.00;6099540;28;20044;-70
2023/05/14 13:04:13;;;;;;;5.63;3.20;;;;;;;21.89;34.71;100909.13;6111883;28;20067;-68
2023/05/14 13:07:09;;;;;;;5.33;3.20;;;;;;;22.54;33.31;100897.91;6106105;28;20510;-69
2023/05/14 13:10:05;;;;;;;3.97;2.88;;;;;;;23.52;31.63;100893.50;6098376;28;20025;-70
2023/05/14 13:13:01;;;;;;;6.47;3.05;;;;;;;23.97;31.97;100906.69;6098672;28;20068;-71
2023/05/14 13:15:56;;;;;;;4.63;3.10;;;;;;;23.89;31.82;100888.84;6096687;28;20464;-71
2023/05/14 13:18:53;;;;;;;9.10;3.30;;;;;;;23.06;32.45;100882.31;6091744;28;20055;-70
2023/05/14 13:21:48;;;;;;;5.13;2.90;;;;;;;22.14;32.37;100898.41;6095763;28;20021;-70
2023/05/14 13:24:43;;;;;;;5.07;3.45;;;;;;;21.90;33.39;100886.50;6096385;28;20287;-69
2023/05/14 13:27:39;;;;;;;7.18;3.00;;;;;;;21.92;34.82;100896.03;6097087;28;20048;-69
2023/05/14 13:30:34;;;;;;;7.27;2.90;;;;;;;21.63;35.02;100888.44;6097457;28;20043;-70
2023/05/14 13:33:29;;;;;;;4.90;2.70;;;;;;;21.44;37.03;100899.31;6094756;28;20014;-70
2023/05/14 13:36:25;;;;;;;4.93;2.83;;;;;;;20.87;39.56;100895.44;6095981;28;20267;-69
2023/05/14 13:39:21;;;;;;;6.83;3.50;;;;;;;20.46;40.35;100889.41;6095261;28;20259;-70
2023/05/14 13:42:16;;;;;;;4.28;2.55;;;;;;;20.40;40.46;100887.53;6095608;28;20754;-70